Decoded Metar for KOSU (COLUMBUS/ST UNIV in OH, USA) (IATA:OSU) | Meteo·Mobile Aviation Weather
aviador You're here:

KOSU Decoded Metar

COLUMBUS/ST UNIV in OH, USA
Report Time2018-09-24 06:53:00
UTC Time2018-09-24 07:47:23
Flight Rules mvfr MVFR
Wind070° at 05 kt
W.Decomp.*RWY 09: 4.8 kt HW 1.3 kt LCW
RWY 05: 4.5 kt HW 2.1 kt RCW
RWY 14: 2.1 kt HW 4.5 kt LCW
W.Rank070° ranks 32
Current wind is below 070° avg. (5.4)
Visibility9999 m
Phenomena:N/A
Clouds:Overcast 025 Hf
Expected CloudBase > 800 ft AGL from Temp-Dew spread
Ceiling2,500 ft
Temp16°C (ISA +3)
Dew Point14°C (88% RH)
AAT15.5°C
QNH1021 hPa
Density Alt1,201 ft
Elevation919 ft
Report Wrong Elevation
Raw Report
KOSU 240653Z AUTO 07005KT 10SM OVC025 16/14 A3015 RMK AO2 SLP205
T01610144=

Extra information for KOSU:More info

Metar Taf Metar & Taf Last 4 Metars F.Rules Stats Wind Profile Meteogram Temp Stats Airport Information Weather charts Add Link Nearby VenuesMetar ALERT Operation Metar Decoded Social comments

AIRNAV info for KOSU